sensor_id;sensor_type;location;lat;lon;timestamp;P1;durP1;ratioP1;P2;durP2;ratioP2
21621;SDS011;10973;46.706;12.340;2022-10-31T00:01:27;7.00;;;2.93;;
21621;SDS011;10973;46.706;12.340;2022-10-31T00:04:05;9.50;;;3.83;;
21621;SDS011;10973;46.706;12.340;2022-10-31T00:06:32;6.37;;;2.90;;
21621;SDS011;10973;46.706;12.340;2022-10-31T00:09:00;9.87;;;3.63;;
21621;SDS011;10973;46.706;12.340;2022-10-31T00:11:30;8.33;;;2.80;;
21621;SDS011;10973;46.706;12.340;2022-10-31T00:13:57;6.63;;;2.93;;
21621;SDS011;10973;46.706;12.340;2022-10-31T00:16:25;7.17;;;2.90;;
21621;SDS011;10973;46.706;12.340;2022-10-31T00:19:02;8.57;;;3.07;;
21621;SDS011;10973;46.706;12.340;2022-10-31T00:21:33;6.27;;;3.17;;
21621;SDS011;10973;46.706;12.340;2022-10-31T00:24:01;7.47;;;3.30;;
21621;SDS011;10973;46.706;12.340;2022-10-31T00:26:29;7.40;;;2.87;;
21621;SDS011;10973;46.706;12.340;2022-10-31T00:28:58;7.47;;;3.30;;
21621;SDS011;10973;46.706;12.340;2022-10-31T00:31:26;5.90;;;2.83;;
21621;SDS011;10973;46.706;12.340;2022-10-31T00:33:54;4.67;;;2.60;;
21621;SDS011;10973;46.706;12.340;2022-10-31T00:36:22;6.27;;;2.80;;
21621;SDS011;10973;46.706;12.340;2022-10-31T00:38:50;4.43;;;2.67;;
21621;SDS011;10973;46.706;12.340;2022-10-31T00:41:17;6.40;;;2.60;;
21621;SDS011;10973;46.706;12.340;2022-10-31T00:43:45;5.63;;;3.03;;
21621;SDS011;10973;46.706;12.340;2022-10-31T00:46:12;3.83;;;2.93;;
21621;SDS011;10973;46.706;12.340;2022-10-31T00:48:40;6.87;;;3.07;;
21621;SDS011;10973;46.706;12.340;2022-10-31T00:51:08;8.10;;;3.07;;
21621;SDS011;10973;46.706;12.340;2022-10-31T00:53:36;4.23;;;2.57;;
21621;SDS011;10973;46.706;12.340;2022-10-31T00:56:04;4.00;;;2.70;;
21621;SDS011;10973;46.706;12.340;2022-10-31T00:58:31;7.10;;;2.70;;
21621;SDS011;10973;46.706;12.340;2022-10-31T01:00:59;4.03;;;2.40;;
21621;SDS011;10973;46.706;12.340;2022-10-31T01:03:27;7.23;;;2.80;;
21621;SDS011;10973;46.706;12.340;2022-10-31T01:06:03;9.53;;;3.57;;
21621;SDS011;10973;46.706;12.340;2022-10-31T01:08:36;4.70;;;2.67;;
21621;SDS011;10973;46.706;12.340;2022-10-31T01:13:49;9.13;;;3.10;;
21621;SDS011;10973;46.706;12.340;2022-10-31T01:16:19;12.73;;;3.27;;
21621;SDS011;10973;46.706;12.340;2022-10-31T01:18:50;4.77;;;2.90;;
21621;SDS011;10973;46.706;12.340;2022-10-31T01:21:19;5.50;;;3.17;;
21621;SDS011;10973;46.706;12.340;2022-10-31T01:23:53;8.33;;;3.47;;
21621;SDS011;10973;46.706;12.340;2022-10-31T01:26:30;8.57;;;3.97;;
21621;SDS011;10973;46.706;12.340;2022-10-31T01:29:07;7.80;;;4.27;;
21621;SDS011;10973;46.706;12.340;2022-10-31T01:31:36;10.43;;;4.77;;
21621;SDS011;10973;46.706;12.340;2022-10-31T01:34:05;12.73;;;5.60;;
21621;SDS011;10973;46.706;12.340;2022-10-31T01:36:36;13.00;;;5.10;;
21621;SDS011;10973;46.706;12.340;2022-10-31T01:39:06;12.83;;;5.37;;
21621;SDS011;10973;46.706;12.340;2022-10-31T01:41:41;8.47;;;4.10;;
21621;SDS011;10973;46.706;12.340;2022-10-31T01:49:40;8.50;;;4.07;;
21621;SDS011;10973;46.706;12.340;2022-10-31T01:52:25;8.30;;;3.83;;
21621;SDS011;10973;46.706;12.340;2022-10-31T01:54:58;7.93;;;3.77;;
21621;SDS011;10973;46.706;12.340;2022-10-31T01:57:32;7.93;;;3.67;;
21621;SDS011;10973;46.706;12.340;2022-10-31T02:00:03;8.90;;;3.77;;
21621;SDS011;10973;46.706;12.340;2022-10-31T02:02:35;10.17;;;3.20;;
21621;SDS011;10973;46.706;12.340;2022-10-31T02:05:04;6.20;;;3.33;;
21621;SDS011;10973;46.706;12.340;2022-10-31T02:07:59;9.27;;;3.70;;
21621;SDS011;10973;46.706;12.340;2022-10-31T02:10:35;5.00;;;3.33;;
21621;SDS011;10973;46.706;12.340;2022-10-31T02:13:04;7.63;;;3.13;;
21621;SDS011;10973;46.706;12.340;2022-10-31T02:15:35;8.23;;;3.20;;
21621;SDS011;10973;46.706;12.340;2022-10-31T02:18:05;6.03;;;3.00;;
21621;SDS011;10973;46.706;12.340;2022-10-31T02:37:55;5.70;;;2.90;;
21621;SDS011;10973;46.706;12.340;2022-10-31T02:41:06;12.87;;;3.53;;
21621;SDS011;10973;46.706;12.340;2022-10-31T02:49:31;8.27;;;2.73;;
21621;SDS011;10973;46.706;12.340;2022-10-31T02:54:49;6.17;;;3.20;;
21621;SDS011;10973;46.706;12.340;2022-10-31T02:57:18;10.20;;;3.70;;
21621;SDS011;10973;46.706;12.340;2022-10-31T02:59:59;5.83;;;3.07;;
21621;SDS011;10973;46.706;12.340;2022-10-31T03:03:17;9.90;;;2.90;;
21621;SDS011;10973;46.706;12.340;2022-10-31T03:05:58;6.73;;;3.33;;
21621;SDS011;10973;46.706;12.340;2022-10-31T03:08:54;5.10;;;2.90;;
21621;SDS011;10973;46.706;12.340;2022-10-31T03:12:19;6.57;;;3.80;;
21621;SDS011;10973;46.706;12.340;2022-10-31T03:14:43;6.27;;;3.10;;
21621;SDS011;10973;46.706;12.340;2022-10-31T03:17:38;4.77;;;3.10;;
21621;SDS011;10973;46.706;12.340;2022-10-31T03:20:20;4.77;;;2.50;;
21621;SDS011;10973;46.706;12.340;2022-10-31T03:22:55;6.77;;;3.80;;
21621;SDS011;10973;46.706;12.340;2022-10-31T03:25:24;6.43;;;2.77;;
21621;SDS011;10973;46.706;12.340;2022-10-31T03:27:54;8.40;;;2.90;;
21621;SDS011;10973;46.706;12.340;2022-10-31T03:30:25;9.70;;;3.60;;
21621;SDS011;10973;46.706;12.340;2022-10-31T03:32:54;10.10;;;3.53;;
21621;SDS011;10973;46.706;12.340;2022-10-31T03:35:26;7.17;;;3.00;;
21621;SDS011;10973;46.706;12.340;2022-10-31T03:37:56;4.13;;;2.87;;
21621;SDS011;10973;46.706;12.340;2022-10-31T03:40:33;5.57;;;2.70;;
21621;SDS011;10973;46.706;12.340;2022-10-31T03:43:05;3.33;;;2.60;;
21621;SDS011;10973;46.706;12.340;2022-10-31T03:45:41;7.57;;;3.10;;
21621;SDS011;10973;46.706;12.340;2022-10-31T03:48:13;5.23;;;3.10;;
21621;SDS011;10973;46.706;12.340;2022-10-31T03:50:47;7.70;;;2.87;;
21621;SDS011;10973;46.706;12.340;2022-10-31T03:53:40;8.03;;;2.63;;
21621;SDS011;10973;46.706;12.340;2022-10-31T03:56:37;9.77;;;2.90;;
21621;SDS011;10973;46.706;12.340;2022-10-31T03:59:19;3.87;;;2.60;;
21621;SDS011;10973;46.706;12.340;2022-10-31T04:02:01;7.53;;;2.70;;
21621;SDS011;10973;46.706;12.340;2022-10-31T04:04:34;4.43;;;2.57;;
21621;SDS011;10973;46.706;12.340;2022-10-31T04:07:03;6.60;;;3.40;;
21621;SDS011;10973;46.706;12.340;2022-10-31T04:09:33;6.50;;;3.00;;
21621;SDS011;10973;46.706;12.340;2022-10-31T04:12:06;6.33;;;2.63;;
21621;SDS011;10973;46.706;12.340;2022-10-31T04:14:38;7.20;;;2.67;;
21621;SDS011;10973;46.706;12.340;2022-10-31T04:17:10;5.63;;;2.80;;
21621;SDS011;10973;46.706;12.340;2022-10-31T04:19:44;4.73;;;2.60;;
21621;SDS011;10973;46.706;12.340;2022-10-31T04:22:12;5.40;;;2.80;;
21621;SDS011;10973;46.706;12.340;2022-10-31T04:24:39;5.97;;;3.07;;
21621;SDS011;10973;46.706;12.340;2022-10-31T04:27:07;7.20;;;3.17;;
21621;SDS011;10973;46.706;12.340;2022-10-31T04:29:34;12.67;;;4.10;;
21621;SDS011;10973;46.706;12.340;2022-10-31T04:32:01;9.53;;;3.80;;
21621;SDS011;10973;46.706;12.340;2022-10-31T04:34:29;5.63;;;3.80;;
21621;SDS011;10973;46.706;12.340;2022-10-31T04:36:56;10.40;;;3.90;;
21621;SDS011;10973;46.706;12.340;2022-10-31T04:39:23;7.87;;;4.00;;
21621;SDS011;10973;46.706;12.340;2022-10-31T04:41:52;10.77;;;4.60;;
21621;SDS011;10973;46.706;12.340;2022-10-31T04:44:19;11.47;;;4.17;;
21621;SDS011;10973;46.706;12.340;2022-10-31T04:46:46;9.97;;;4.60;;
21621;SDS011;10973;46.706;12.340;2022-10-31T04:49:14;12.77;;;4.53;;
21621;SDS011;10973;46.706;12.340;2022-10-31T04:51:41;7.67;;;4.53;;
21621;SDS011;10973;46.706;12.340;2022-10-31T04:54:08;10.43;;;5.43;;
21621;SDS011;10973;46.706;12.340;2022-10-31T04:56:35;18.03;;;7.00;;
21621;SDS011;10973;46.706;12.340;2022-10-31T04:59:02;11.73;;;6.17;;
21621;SDS011;10973;46.706;12.340;2022-10-31T05:01:29;13.50;;;6.93;;
21621;SDS011;10973;46.706;12.340;2022-10-31T05:03:57;16.63;;;9.37;;
21621;SDS011;10973;46.706;12.340;2022-10-31T05:06:24;18.10;;;11.90;;
21621;SDS011;10973;46.706;12.340;2022-10-31T05:08:51;20.73;;;11.27;;
21621;SDS011;10973;46.706;12.340;2022-10-31T05:11:18;12.70;;;8.17;;
21621;SDS011;10973;46.706;12.340;2022-10-31T05:13:45;15.07;;;9.97;;
21621;SDS011;10973;46.706;12.340;2022-10-31T05:16:13;12.13;;;9.87;;
21621;SDS011;10973;46.706;12.340;2022-10-31T05:18:40;17.60;;;12.17;;
21621;SDS011;10973;46.706;12.340;2022-10-31T05:21:07;12.00;;;9.23;;
21621;SDS011;10973;46.706;12.340;2022-10-31T05:23:34;12.60;;;9.20;;
21621;SDS011;10973;46.706;12.340;2022-10-31T05:26:02;17.10;;;12.20;;
21621;SDS011;10973;46.706;12.340;2022-10-31T05:28:29;17.33;;;9.07;;
21621;SDS011;10973;46.706;12.340;2022-10-31T05:30:56;16.83;;;10.13;;
21621;SDS011;10973;46.706;12.340;2022-10-31T05:33:23;12.60;;;9.73;;
21621;SDS011;10973;46.706;12.340;2022-10-31T05:35:51;18.60;;;11.27;;
21621;SDS011;10973;46.706;12.340;2022-10-31T05:38:18;17.77;;;9.57;;
21621;SDS011;10973;46.706;12.340;2022-10-31T05:40:45;13.70;;;9.13;;
21621;SDS011;10973;46.706;12.340;2022-10-31T05:43:12;14.50;;;8.67;;
21621;SDS011;10973;46.706;12.340;2022-10-31T05:45:40;14.23;;;8.73;;
21621;SDS011;10973;46.706;12.340;2022-10-31T05:48:07;14.53;;;10.70;;
21621;SDS011;10973;46.706;12.340;2022-10-31T05:50:35;15.20;;;9.93;;
21621;SDS011;10973;46.706;12.340;2022-10-31T05:53:03;10.73;;;9.27;;
21621;SDS011;10973;46.706;12.340;2022-10-31T05:55:31;11.27;;;7.23;;
21621;SDS011;10973;46.706;12.340;2022-10-31T05:57:59;15.23;;;6.23;;
21621;SDS011;10973;46.706;12.340;2022-10-31T06:00:27;16.07;;;6.83;;
21621;SDS011;10973;46.706;12.340;2022-10-31T06:03:00;14.77;;;6.90;;
21621;SDS011;10973;46.706;12.340;2022-10-31T06:05:31;7.70;;;5.23;;
21621;SDS011;10973;46.706;12.340;2022-10-31T06:07:59;12.43;;;5.77;;
21621;SDS011;10973;46.706;12.340;2022-10-31T06:10:27;12.30;;;4.93;;
21621;SDS011;10973;46.706;12.340;2022-10-31T06:12:55;12.80;;;4.97;;
21621;SDS011;10973;46.706;12.340;2022-10-31T06:15:22;11.93;;;5.10;;
21621;SDS011;10973;46.706;12.340;2022-10-31T06:18:03;12.17;;;7.17;;
21621;SDS011;10973;46.706;12.340;2022-10-31T06:20:32;9.73;;;7.60;;
21621;SDS011;10973;46.706;12.340;2022-10-31T06:23:00;11.33;;;7.37;;
21621;SDS011;10973;46.706;12.340;2022-10-31T06:25:29;13.37;;;8.00;;
21621;SDS011;10973;46.706;12.340;2022-10-31T06:27:56;15.07;;;7.90;;
21621;SDS011;10973;46.706;12.340;2022-10-31T06:30:24;16.77;;;8.90;;
21621;SDS011;10973;46.706;12.340;2022-10-31T06:32:52;18.00;;;8.37;;
21621;SDS011;10973;46.706;12.340;2022-10-31T06:35:19;15.77;;;8.70;;
21621;SDS011;10973;46.706;12.340;2022-10-31T06:37:53;23.07;;;9.67;;
21621;SDS011;10973;46.706;12.340;2022-10-31T06:40:21;18.77;;;11.37;;
21621;SDS011;10973;46.706;12.340;2022-10-31T06:43:00;23.73;;;13.63;;
21621;SDS011;10973;46.706;12.340;2022-10-31T06:45:27;18.33;;;12.67;;
21621;SDS011;10973;46.706;12.340;2022-10-31T06:47:55;23.63;;;12.77;;
21621;SDS011;10973;46.706;12.340;2022-10-31T06:50:43;15.13;;;11.60;;
21621;SDS011;10973;46.706;12.340;2022-10-31T06:53:11;22.07;;;12.90;;
21621;SDS011;10973;46.706;12.340;2022-10-31T06:55:38;19.43;;;11.67;;
21621;SDS011;10973;46.706;12.340;2022-10-31T06:58:06;12.40;;;10.20;;
21621;SDS011;10973;46.706;12.340;2022-10-31T07:00:36;15.27;;;11.80;;
21621;SDS011;10973;46.706;12.340;2022-10-31T07:03:05;23.40;;;11.93;;
21621;SDS011;10973;46.706;12.340;2022-10-31T07:05:36;16.73;;;11.00;;
21621;SDS011;10973;46.706;12.340;2022-10-31T07:08:05;20.00;;;10.83;;
21621;SDS011;10973;46.706;12.340;2022-10-31T07:10:36;13.17;;;10.03;;
21621;SDS011;10973;46.706;12.340;2022-10-31T07:13:08;15.37;;;9.23;;
21621;SDS011;10973;46.706;12.340;2022-10-31T07:15:40;15.00;;;9.87;;
21621;SDS011;10973;46.706;12.340;2022-10-31T07:18:10;17.67;;;11.30;;
21621;SDS011;10973;46.706;12.340;2022-10-31T07:20:38;15.10;;;9.37;;
21621;SDS011;10973;46.706;12.340;2022-10-31T07:23:06;14.43;;;9.77;;
21621;SDS011;10973;46.706;12.340;2022-10-31T07:25:36;17.37;;;10.57;;
21621;SDS011;10973;46.706;12.340;2022-10-31T07:28:04;15.87;;;9.77;;
21621;SDS011;10973;46.706;12.340;2022-10-31T07:30:32;15.37;;;8.93;;
21621;SDS011;10973;46.706;12.340;2022-10-31T07:32:59;13.13;;;8.97;;
21621;SDS011;10973;46.706;12.340;2022-10-31T07:35:27;16.33;;;8.97;;
21621;SDS011;10973;46.706;12.340;2022-10-31T07:37:56;16.87;;;9.00;;
21621;SDS011;10973;46.706;12.340;2022-10-31T07:40:24;12.80;;;8.20;;
21621;SDS011;10973;46.706;12.340;2022-10-31T07:42:52;16.40;;;9.03;;
21621;SDS011;10973;46.706;12.340;2022-10-31T07:45:21;19.43;;;12.00;;
21621;SDS011;10973;46.706;12.340;2022-10-31T07:47:52;19.40;;;11.03;;
21621;SDS011;10973;46.706;12.340;2022-10-31T07:50:27;18.43;;;11.00;;
21621;SDS011;10973;46.706;12.340;2022-10-31T07:53:00;16.43;;;8.77;;
21621;SDS011;10973;46.706;12.340;2022-10-31T07:55:31;16.20;;;10.10;;
21621;SDS011;10973;46.706;12.340;2022-10-31T07:58:00;13.17;;;8.00;;
21621;SDS011;10973;46.706;12.340;2022-10-31T08:00:46;12.27;;;8.53;;
21621;SDS011;10973;46.706;12.340;2022-10-31T08:03:16;19.97;;;8.77;;
21621;SDS011;10973;46.706;12.340;2022-10-31T08:05:45;15.73;;;9.43;;
21621;SDS011;10973;46.706;12.340;2022-10-31T08:08:13;16.87;;;8.60;;
21621;SDS011;10973;46.706;12.340;2022-10-31T08:10:41;13.17;;;7.13;;
21621;SDS011;10973;46.706;12.340;2022-10-31T08:13:12;10.80;;;6.63;;
21621;SDS011;10973;46.706;12.340;2022-10-31T08:15:40;11.83;;;6.10;;
21621;SDS011;10973;46.706;12.340;2022-10-31T08:18:12;10.43;;;6.17;;
21621;SDS011;10973;46.706;12.340;2022-10-31T08:20:41;14.23;;;7.37;;
21621;SDS011;10973;46.706;12.340;2022-10-31T08:23:10;15.83;;;6.20;;
21621;SDS011;10973;46.706;12.340;2022-10-31T08:25:38;12.53;;;6.43;;
21621;SDS011;10973;46.706;12.340;2022-10-31T08:28:06;12.17;;;6.77;;
21621;SDS011;10973;46.706;12.340;2022-10-31T08:30:37;9.07;;;6.07;;
21621;SDS011;10973;46.706;12.340;2022-10-31T08:33:11;9.30;;;5.83;;
21621;SDS011;10973;46.706;12.340;2022-10-31T08:35:43;11.40;;;5.73;;
21621;SDS011;10973;46.706;12.340;2022-10-31T08:38:11;8.43;;;5.10;;
21621;SDS011;10973;46.706;12.340;2022-10-31T08:40:39;8.70;;;4.60;;
21621;SDS011;10973;46.706;12.340;2022-10-31T08:43:14;10.87;;;5.07;;
21621;SDS011;10973;46.706;12.340;2022-10-31T08:45:43;13.83;;;5.63;;
21621;SDS011;10973;46.706;12.340;2022-10-31T08:48:15;11.87;;;4.57;;
21621;SDS011;10973;46.706;12.340;2022-10-31T08:50:44;7.67;;;3.67;;
21621;SDS011;10973;46.706;12.340;2022-10-31T08:55:42;6.43;;;3.30;;
21621;SDS011;10973;46.706;12.340;2022-10-31T08:58:14;7.53;;;3.30;;
21621;SDS011;10973;46.706;12.340;2022-10-31T09:00:45;8.57;;;3.53;;
21621;SDS011;10973;46.706;12.340;2022-10-31T09:03:15;9.83;;;3.67;;
21621;SDS011;10973;46.706;12.340;2022-10-31T09:05:54;9.40;;;3.30;;
21621;SDS011;10973;46.706;12.340;2022-10-31T09:08:24;7.60;;;3.23;;
21621;SDS011;10973;46.706;12.340;2022-10-31T09:10:51;6.53;;;3.17;;
21621;SDS011;10973;46.706;12.340;2022-10-31T09:13:23;6.30;;;3.40;;
21621;SDS011;10973;46.706;12.340;2022-10-31T09:15:53;8.97;;;3.53;;
21621;SDS011;10973;46.706;12.340;2022-10-31T09:18:23;7.67;;;3.73;;
21621;SDS011;10973;46.706;12.340;2022-10-31T09:20:51;9.30;;;2.97;;
21621;SDS011;10973;46.706;12.340;2022-10-31T09:23:19;8.80;;;3.77;;
21621;SDS011;10973;46.706;12.340;2022-10-31T09:25:49;9.67;;;3.20;;
21621;SDS011;10973;46.706;12.340;2022-10-31T09:28:19;9.23;;;3.67;;
21621;SDS011;10973;46.706;12.340;2022-10-31T09:30:50;7.20;;;3.20;;
21621;SDS011;10973;46.706;12.340;2022-10-31T09:33:19;8.43;;;3.63;;
21621;SDS011;10973;46.706;12.340;2022-10-31T09:35:47;8.83;;;3.57;;
21621;SDS011;10973;46.706;12.340;2022-10-31T09:38:16;8.70;;;3.60;;
21621;SDS011;10973;46.706;12.340;2022-10-31T09:41:15;6.23;;;2.90;;
21621;SDS011;10973;46.706;12.340;2022-10-31T09:55:39;19.73;;;3.50;;
21621;SDS011;10973;46.706;12.340;2022-10-31T09:58:18;7.63;;;2.40;;
21621;SDS011;10973;46.706;12.340;2022-10-31T10:00:56;4.47;;;2.70;;
21621;SDS011;10973;46.706;12.340;2022-10-31T10:03:33;7.27;;;3.13;;
21621;SDS011;10973;46.706;12.340;2022-10-31T10:06:17;11.50;;;3.03;;
21621;SDS011;10973;46.706;12.340;2022-10-31T10:08:59;5.97;;;2.70;;
21621;SDS011;10973;46.706;12.340;2022-10-31T10:18:00;6.10;;;3.20;;
21621;SDS011;10973;46.706;12.340;2022-10-31T10:24:09;5.97;;;2.90;;
21621;SDS011;10973;46.706;12.340;2022-10-31T10:26:56;10.10;;;3.07;;
21621;SDS011;10973;46.706;12.340;2022-10-31T10:30:32;6.43;;;2.60;;
21621;SDS011;10973;46.706;12.340;2022-10-31T10:32:52;5.33;;;2.67;;
21621;SDS011;10973;46.706;12.340;2022-10-31T10:38:08;8.27;;;3.33;;
21621;SDS011;10973;46.706;12.340;2022-10-31T10:40:46;10.53;;;3.23;;
21621;SDS011;10973;46.706;12.340;2022-10-31T10:46:16;7.40;;;3.20;;
21621;SDS011;10973;46.706;12.340;2022-10-31T10:57:56;9.07;;;3.40;;
21621;SDS011;10973;46.706;12.340;2022-10-31T11:00:43;7.30;;;2.93;;
21621;SDS011;10973;46.706;12.340;2022-10-31T11:03:13;11.43;;;2.97;;
21621;SDS011;10973;46.706;12.340;2022-10-31T11:05:50;5.57;;;2.87;;
21621;SDS011;10973;46.706;12.340;2022-10-31T11:13:37;6.07;;;2.87;;
21621;SDS011;10973;46.706;12.340;2022-10-31T11:16:14;8.20;;;2.50;;
21621;SDS011;10973;46.706;12.340;2022-10-31T11:19:13;10.70;;;3.00;;
21621;SDS011;10973;46.706;12.340;2022-10-31T11:21:43;7.53;;;3.10;;
21621;SDS011;10973;46.706;12.340;2022-10-31T11:24:22;7.97;;;2.80;;
21621;SDS011;10973;46.706;12.340;2022-10-31T11:26:51;10.03;;;3.43;;
21621;SDS011;10973;46.706;12.340;2022-10-31T11:29:38;8.13;;;3.47;;
21621;SDS011;10973;46.706;12.340;2022-10-31T11:32:05;10.03;;;2.73;;
21621;SDS011;10973;46.706;12.340;2022-10-31T11:34:48;9.37;;;3.30;;
21621;SDS011;10973;46.706;12.340;2022-10-31T11:37:26;9.47;;;3.37;;
21621;SDS011;10973;46.706;12.340;2022-10-31T11:39:59;6.77;;;3.00;;
21621;SDS011;10973;46.706;12.340;2022-10-31T11:42:38;7.53;;;3.23;;
21621;SDS011;10973;46.706;12.340;2022-10-31T11:45:15;6.13;;;2.80;;
21621;SDS011;10973;46.706;12.340;2022-10-31T11:47:47;6.70;;;2.70;;
21621;SDS011;10973;46.706;12.340;2022-10-31T11:50:26;6.40;;;2.63;;
21621;SDS011;10973;46.706;12.340;2022-10-31T11:53:00;8.95;;;3.22;;
21621;SDS011;10973;46.706;12.340;2022-10-31T11:55:34;6.40;;;3.35;;
21621;SDS011;10973;46.706;12.340;2022-10-31T11:58:04;11.10;;;3.30;;
21621;SDS011;10973;46.706;12.340;2022-10-31T12:00:50;12.95;;;3.38;;
21621;SDS011;10973;46.706;12.340;2022-10-31T12:05:49;8.82;;;2.58;;
21621;SDS011;10973;46.706;12.340;2022-10-31T12:08:46;8.50;;;2.67;;
21621;SDS011;10973;46.706;12.340;2022-10-31T12:14:37;7.95;;;2.45;;
21621;SDS011;10973;46.706;12.340;2022-10-31T12:17:30;4.87;;;2.53;;
21621;SDS011;10973;46.706;12.340;2022-10-31T12:23:42;7.10;;;2.58;;
21621;SDS011;10973;46.706;12.340;2022-10-31T12:35:03;6.70;;;2.78;;
21621;SDS011;10973;46.706;12.340;2022-10-31T12:58:59;10.10;;;3.10;;
21621;SDS011;10973;46.706;12.340;2022-10-31T13:01:53;8.50;;;3.00;;
21621;SDS011;10973;46.706;12.340;2022-10-31T13:04:45;5.03;;;2.73;;
21621;SDS011;10973;46.706;12.340;2022-10-31T13:08:20;9.13;;;2.90;;
21621;SDS011;10973;46.706;12.340;2022-10-31T13:10:46;7.33;;;2.87;;
21621;SDS011;10973;46.706;12.340;2022-10-31T13:21:37;5.60;;;2.83;;
21621;SDS011;10973;46.706;12.340;2022-10-31T13:24:39;8.63;;;3.13;;
21621;SDS011;10973;46.706;12.340;2022-10-31T13:30:30;6.80;;;2.80;;
21621;SDS011;10973;46.706;12.340;2022-10-31T13:34:04;6.23;;;3.47;;
21621;SDS011;10973;46.706;12.340;2022-10-31T13:45:15;11.93;;;3.00;;
21621;SDS011;10973;46.706;12.340;2022-10-31T13:47:57;6.20;;;2.67;;
21621;SDS011;10973;46.706;12.340;2022-10-31T13:50:56;6.30;;;2.90;;
21621;SDS011;10973;46.706;12.340;2022-10-31T14:01:45;13.97;;;3.07;;
21621;SDS011;10973;46.706;12.340;2022-10-31T14:04:23;12.13;;;3.97;;
21621;SDS011;10973;46.706;12.340;2022-10-31T14:09:38;7.37;;;3.17;;
21621;SDS011;10973;46.706;12.340;2022-10-31T14:13:02;14.00;;;3.80;;
21621;SDS011;10973;46.706;12.340;2022-10-31T14:15:16;9.70;;;2.90;;
21621;SDS011;10973;46.706;12.340;2022-10-31T14:20:45;13.93;;;3.20;;
21621;SDS011;10973;46.706;12.340;2022-10-31T14:26:06;9.10;;;3.70;;
21621;SDS011;10973;46.706;12.340;2022-10-31T14:28:55;44.17;;;5.47;;
21621;SDS011;10973;46.706;12.340;2022-10-31T14:31:36;25.80;;;4.33;;
21621;SDS011;10973;46.706;12.340;2022-10-31T14:34:27;13.83;;;3.70;;
21621;SDS011;10973;46.706;12.340;2022-10-31T14:52:00;12.70;;;4.40;;
21621;SDS011;10973;46.706;12.340;2022-10-31T14:54:34;57.70;;;10.73;;
21621;SDS011;10973;46.706;12.340;2022-10-31T14:57:15;14.87;;;4.40;;
21621;SDS011;10973;46.706;12.340;2022-10-31T14:59:50;9.90;;;3.53;;
21621;SDS011;10973;46.706;12.340;2022-10-31T15:02:48;7.17;;;2.90;;
21621;SDS011;10973;46.706;12.340;2022-10-31T15:05:43;22.07;;;4.70;;
21621;SDS011;10973;46.706;12.340;2022-10-31T15:08:29;7.50;;;3.63;;
21621;SDS011;10973;46.706;12.340;2022-10-31T15:11:20;12.63;;;3.80;;
21621;SDS011;10973;46.706;12.340;2022-10-31T15:13:53;13.10;;;3.53;;
21621;SDS011;10973;46.706;12.340;2022-10-31T15:16:33;14.10;;;3.93;;
21621;SDS011;10973;46.706;12.340;2022-10-31T15:19:06;19.63;;;4.53;;
21621;SDS011;10973;46.706;12.340;2022-10-31T15:21:43;16.80;;;4.17;;
21621;SDS011;10973;46.706;12.340;2022-10-31T15:24:14;14.97;;;5.97;;
21621;SDS011;10973;46.706;12.340;2022-10-31T15:26:44;16.50;;;5.30;;
21621;SDS011;10973;46.706;12.340;2022-10-31T15:29:16;14.60;;;4.60;;
21621;SDS011;10973;46.706;12.340;2022-10-31T15:31:49;13.23;;;4.00;;
21621;SDS011;10973;46.706;12.340;2022-10-31T15:34:21;7.03;;;3.70;;
21621;SDS011;10973;46.706;12.340;2022-10-31T15:37:13;7.63;;;3.73;;
21621;SDS011;10973;46.706;12.340;2022-10-31T15:39:43;8.33;;;4.10;;
21621;SDS011;10973;46.706;12.340;2022-10-31T15:47:36;9.67;;;4.93;;
21621;SDS011;10973;46.706;12.340;2022-10-31T15:50:05;8.50;;;5.07;;
21621;SDS011;10973;46.706;12.340;2022-10-31T15:52:47;12.57;;;6.90;;
21621;SDS011;10973;46.706;12.340;2022-10-31T15:55:18;11.07;;;6.63;;
21621;SDS011;10973;46.706;12.340;2022-10-31T15:57:53;11.00;;;6.30;;
21621;SDS011;10973;46.706;12.340;2022-10-31T16:00:26;8.30;;;5.50;;
21621;SDS011;10973;46.706;12.340;2022-10-31T16:03:03;13.40;;;4.87;;
21621;SDS011;10973;46.706;12.340;2022-10-31T16:05:37;9.33;;;4.70;;
21621;SDS011;10973;46.706;12.340;2022-10-31T16:11:02;9.83;;;4.73;;
21621;SDS011;10973;46.706;12.340;2022-10-31T16:14:13;10.03;;;5.10;;
21621;SDS011;10973;46.706;12.340;2022-10-31T16:17:00;10.93;;;7.60;;
21621;SDS011;10973;46.706;12.340;2022-10-31T16:19:29;16.13;;;7.27;;
21621;SDS011;10973;46.706;12.340;2022-10-31T16:22:11;9.00;;;3.57;;
21621;SDS011;10973;46.706;12.340;2022-10-31T16:27:18;14.37;;;8.50;;
21621;SDS011;10973;46.706;12.340;2022-10-31T16:29:51;16.13;;;8.17;;
21621;SDS011;10973;46.706;12.340;2022-10-31T16:32:26;10.03;;;7.67;;
21621;SDS011;10973;46.706;12.340;2022-10-31T16:35:17;13.70;;;7.53;;
21621;SDS011;10973;46.706;12.340;2022-10-31T16:38:01;21.57;;;11.63;;
21621;SDS011;10973;46.706;12.340;2022-10-31T16:40:30;19.07;;;10.40;;
21621;SDS011;10973;46.706;12.340;2022-10-31T16:42:59;27.10;;;17.07;;
21621;SDS011;10973;46.706;12.340;2022-10-31T16:45:29;22.67;;;15.43;;
21621;SDS011;10973;46.706;12.340;2022-10-31T16:48:05;16.37;;;9.57;;
21621;SDS011;10973;46.706;12.340;2022-10-31T16:50:37;12.73;;;8.03;;
21621;SDS011;10973;46.706;12.340;2022-10-31T16:53:05;11.37;;;6.83;;
21621;SDS011;10973;46.706;12.340;2022-10-31T16:55:44;8.90;;;6.43;;
21621;SDS011;10973;46.706;12.340;2022-10-31T16:58:23;9.13;;;5.27;;
21621;SDS011;10973;46.706;12.340;2022-10-31T17:01:02;14.20;;;6.20;;
21621;SDS011;10973;46.706;12.340;2022-10-31T17:03:33;12.80;;;6.27;;
21621;SDS011;10973;46.706;12.340;2022-10-31T17:06:01;12.37;;;7.10;;
21621;SDS011;10973;46.706;12.340;2022-10-31T17:08:29;17.40;;;6.97;;
21621;SDS011;10973;46.706;12.340;2022-10-31T17:10:56;16.60;;;11.10;;
21621;SDS011;10973;46.706;12.340;2022-10-31T17:13:26;16.97;;;9.50;;
21621;SDS011;10973;46.706;12.340;2022-10-31T17:15:59;14.80;;;8.93;;
21621;SDS011;10973;46.706;12.340;2022-10-31T17:18:28;13.17;;;6.63;;
21621;SDS011;10973;46.706;12.340;2022-10-31T17:20:58;10.20;;;6.40;;
21621;SDS011;10973;46.706;12.340;2022-10-31T17:23:31;11.43;;;6.20;;
21621;SDS011;10973;46.706;12.340;2022-10-31T17:25:59;8.97;;;4.70;;
21621;SDS011;10973;46.706;12.340;2022-10-31T17:28:37;9.50;;;5.10;;
21621;SDS011;10973;46.706;12.340;2022-10-31T17:31:20;13.07;;;7.13;;
21621;SDS011;10973;46.706;12.340;2022-10-31T17:33:53;10.43;;;5.87;;
21621;SDS011;10973;46.706;12.340;2022-10-31T17:36:29;9.37;;;4.80;;
21621;SDS011;10973;46.706;12.340;2022-10-31T17:38:57;7.10;;;3.83;;
21621;SDS011;10973;46.706;12.340;2022-10-31T17:41:25;10.37;;;4.70;;
21621;SDS011;10973;46.706;12.340;2022-10-31T17:43:56;7.57;;;5.00;;
21621;SDS011;10973;46.706;12.340;2022-10-31T17:46:24;10.90;;;4.97;;
21621;SDS011;10973;46.706;12.340;2022-10-31T17:48:52;10.47;;;5.17;;
21621;SDS011;10973;46.706;12.340;2022-10-31T17:51:19;16.53;;;7.83;;
21621;SDS011;10973;46.706;12.340;2022-10-31T17:53:46;13.00;;;6.87;;
21621;SDS011;10973;46.706;12.340;2022-10-31T17:56:14;7.63;;;5.10;;
21621;SDS011;10973;46.706;12.340;2022-10-31T17:58:41;7.60;;;3.77;;
21621;SDS011;10973;46.706;12.340;2022-10-31T18:01:09;6.57;;;3.70;;
21621;SDS011;10973;46.706;12.340;2022-10-31T18:03:39;10.20;;;4.30;;
21621;SDS011;10973;46.706;12.340;2022-10-31T18:06:07;8.40;;;4.40;;